Time;durP1;ratioP1;P1;durP2;ratioP2;P2;SDS_P1;SDS_P2;PMS_P1;PMS_P2;Temp;Humidity;BMP_temperature;BMP_pressure;BME280_temperature;BME280_humidity;BME280_pressure;Samples;Min_cycle;Max_cycle;Signal;HPM_P1;HPM_P2
2022/04/26 03:37:53;;;;;;;11.93;8.07;;;;;;;15.23;46.90;101428.38;5034703;28;20546;-47
2022/04/26 03:40:19;;;;;;;11.95;6.68;;;;;;;15.10;47.32;101423.09;5035025;28;20033;-47
2022/04/26 03:42:45;;;;;;;15.90;6.85;;;;;;;15.06;47.48;101428.13;5034161;28;20025;-47
2022/04/26 03:45:11;;;;;;;10.68;6.22;;;;;;;15.15;47.14;101416.00;5034128;28;20030;-47
2022/04/26 03:47:38;;;;;;;15.38;6.70;;;;;;;15.13;47.55;101425.38;5033919;28;20104;-49
2022/04/26 03:50:04;;;;;;;17.77;7.05;;;;;;;15.08;47.93;101434.13;5034111;28;20397;-48
2022/04/26 03:52:31;;;;;;;10.85;6.40;;;;;;;15.08;48.40;101430.59;5034176;28;20021;-47
2022/04/26 03:54:57;;;;;;;16.00;7.00;;;;;;;15.10;48.49;101440.09;5033903;28;20478;-50
2022/04/26 03:57:24;;;;;;;11.77;6.07;;;;;;;15.07;48.65;101445.13;5033780;28;20440;-49
2022/04/26 03:59:50;;;;;;;12.32;6.68;;;;;;;14.91;49.42;101447.31;5033910;28;20037;-49
2022/04/26 04:02:16;;;;;;;16.17;6.65;;;;;;;15.02;49.12;101443.09;5033913;28;20535;-50
2022/04/26 04:04:42;;;;;;;15.70;6.80;;;;;;;14.92;49.58;101443.59;5034079;28;20417;-48
2022/04/26 04:07:09;;;;;;;15.43;6.85;;;;;;;14.99;49.72;101441.69;5032912;28;20116;-48
2022/04/26 04:09:35;;;;;;;11.80;6.15;;;;;;;14.96;50.10;101441.28;5033653;28;20037;-47
2022/04/26 04:12:01;;;;;;;12.70;6.38;;;;;;;14.89;50.37;101438.66;5033694;28;20052;-50
2022/04/26 04:14:28;;;;;;;11.68;5.97;;;;;;;14.81;51.00;101446.16;5033751;28;20155;-49
2022/04/26 04:16:56;;;;;;;13.68;5.65;;;;;;;14.80;51.22;101453.44;5033618;28;20490;-50
2022/04/26 04:19:23;;;;;;;11.73;6.18;;;;;;;14.85;51.10;101447.38;5033248;28;20083;-50
2022/04/26 04:21:50;;;;;;;12.10;6.45;;;;;;;14.82;51.48;101440.56;5033620;28;20022;-50
2022/04/26 04:24:18;;;;;;;11.98;6.35;;;;;;;14.87;51.14;101446.09;5033564;28;20055;-49
2022/04/26 04:26:44;;;;;;;19.48;6.50;;;;;;;14.97;51.31;101454.53;5033357;28;20033;-47
2022/04/26 04:29:12;;;;;;;12.70;7.00;;;;;;;15.04;51.27;101454.47;5032909;28;20048;-50
2022/04/26 04:31:38;;;;;;;12.90;6.05;;;;;;;14.78;51.86;101456.34;5033020;28;20037;-47
2022/04/26 04:34:05;;;;;;;9.25;6.15;;;;;;;14.86;51.85;101462.50;5033706;28;20040;-49
2022/04/26 04:36:31;;;;;;;15.68;6.97;;;;;;;14.28;53.36;101455.41;5033148;28;20040;-50
2022/04/26 04:38:58;;;;;;;12.60;6.70;;;;;;;14.56;52.57;101457.75;5033216;28;20028;-48
2022/04/26 04:41:25;;;;;;;13.75;6.50;;;;;;;14.61;52.47;101465.19;5033139;28;20470;-48
2022/04/26 04:43:51;;;;;;;13.05;6.38;;;;;;;14.76;52.22;101465.69;5032948;28;20083;-48
2022/04/26 04:46:18;;;;;;;10.07;6.15;;;;;;;14.79;52.19;101467.94;5032824;28;20108;-47
2022/04/26 04:48:44;;;;;;;11.32;5.95;;;;;;;14.91;51.44;101463.50;5033161;28;20025;-48
2022/04/26 04:51:10;;;;;;;12.35;5.68;;;;;;;14.98;51.58;101469.66;5032843;28;20033;-47
2022/04/26 04:53:37;;;;;;;12.60;6.20;;;;;;;15.02;51.57;101472.75;5032947;28;20029;-47
2022/04/26 04:56:07;;;;;;;13.15;6.35;;;;;;;14.87;51.50;101472.25;5032686;28;20030;-47
2022/04/26 04:58:33;;;;;;;11.02;6.05;;;;;;;15.01;51.23;101463.84;5033021;28;20049;-47
2022/04/26 05:01:00;;;;;;;12.93;5.63;;;;;;;15.05;50.94;101456.97;5032909;28;20022;-49
2022/04/26 05:03:26;;;;;;;15.48;6.22;;;;;;;15.13;50.71;101452.34;5032783;28;20056;-47
2022/04/26 05:05:52;;;;;;;12.65;6.15;;;;;;;15.11;50.61;101463.34;5032763;28;20458;-48
2022/04/26 05:08:19;;;;;;;10.00;5.72;;;;;;;15.04;50.91;101470.66;5032565;28;20036;-48
2022/04/26 05:10:45;;;;;;;12.68;5.97;;;;;;;15.04;51.04;101465.25;5032585;28;20374;-49
2022/04/26 05:13:11;;;;;;;8.38;5.57;;;;;;;15.12;50.45;101466.88;5032460;28;20052;-50
2022/04/26 05:15:38;;;;;;;11.05;5.55;;;;;;;15.16;50.43;101463.50;5031519;28;20038;-47
2022/04/26 05:18:06;;;;;;;13.13;5.03;;;;;;;15.25;50.21;101462.16;5032052;28;20547;-48
2022/04/26 05:20:32;;;;;;;8.43;5.32;;;;;;;15.06;50.89;101471.28;5032166;28;20026;-49
2022/04/26 05:25:43;;;;;;;9.38;6.07;;;;;;;14.82;51.54;101464.81;5033259;28;20036;-50
2022/04/26 05:28:10;;;;;;;15.52;6.18;;;;;;;14.84;51.65;101468.13;5032773;28;20038;-50
2022/04/26 05:30:36;;;;;;;13.38;6.78;;;;;;;15.08;50.97;101466.47;5032505;28;20536;-51
2022/04/26 05:33:02;;;;;;;12.82;5.97;;;;;;;14.88;51.02;101474.75;5032347;28;20041;-51
2022/04/26 05:35:28;;;;;;;15.40;6.03;;;;;;;14.88;51.00;101469.34;5032556;28;20026;-50
2022/04/26 05:37:55;;;;;;;13.70;6.20;;;;;;;14.88;50.89;101473.88;5032384;28;20084;-47
2022/04/26 05:40:21;;;;;;;11.27;5.28;;;;;;;14.94;50.25;101484.63;5032477;28;20021;-50
2022/04/26 05:42:47;;;;;;;10.55;6.28;;;;;;;14.97;50.44;101480.66;5032437;28;20064;-47
2022/04/26 05:45:14;;;;;;;13.95;7.07;;;;;;;14.95;52.84;101486.28;5032524;28;20017;-47
2022/04/26 05:47:45;;;;;;;12.40;7.45;;;;;;;14.99;55.93;101492.03;5032257;28;20026;-49
2022/04/26 05:50:12;;;;;;;16.42;7.95;;;;;;;14.96;56.53;101485.22;5032392;28;20035;-50
2022/04/26 05:52:39;;;;;;;18.80;8.27;;;;;;;14.83;57.14;101488.03;5032331;28;20029;-48
2022/04/26 05:55:07;;;;;;;17.83;8.32;;;;;;;14.79;58.30;101482.25;5032223;28;20025;-49
2022/04/26 05:57:37;;;;;;;19.77;8.93;;;;;;;14.82;58.63;101486.38;5032392;28;20029;-48
2022/04/26 06:00:05;;;;;;;20.08;8.60;;;;;;;14.70;59.29;101488.13;5032015;28;20053;-50
2022/04/26 06:02:32;;;;;;;22.52;9.07;;;;;;;14.73;59.39;101487.69;5031935;28;20029;-48
2022/04/26 06:04:58;;;;;;;20.83;8.77;;;;;;;14.67;59.85;101488.56;5032050;28;20112;-49
2022/04/26 06:07:24;;;;;;;18.27;8.32;;;;;;;14.69;60.45;101487.28;5032274;28;20100;-48
2022/04/26 06:09:53;;;;;;;25.30;9.30;;;;;;;14.65;60.32;101496.03;5032092;28;20025;-49
2022/04/26 06:12:23;;;;;;;18.75;9.02;;;;;;;14.49;61.36;101495.50;5032004;28;20022;-50
2022/04/26 06:14:50;;;;;;;22.42;9.00;;;;;;;14.28;62.02;101498.50;5031990;28;20116;-47
2022/04/26 06:17:16;;;;;;;22.50;9.10;;;;;;;14.36;61.45;101492.00;5031970;28;20083;-50
2022/04/26 06:19:42;;;;;;;24.77;9.65;;;;;;;14.31;62.21;101487.25;5032209;28;20120;-49
2022/04/26 06:22:08;;;;;;;20.35;9.60;;;;;;;14.42;61.43;101486.59;5031931;28;20064;-50
2022/04/26 06:24:34;;;;;;;22.65;9.32;;;;;;;14.15;62.52;101485.88;5031884;28;20031;-49
2022/04/26 06:27:02;;;;;;;20.95;9.60;;;;;;;14.04;62.58;101486.56;5032777;28;20489;-50
2022/04/26 06:29:29;;;;;;;22.58;9.65;;;;;;;14.14;62.21;101481.53;5032127;28;20512;-49
2022/04/26 06:31:55;;;;;;;24.40;8.77;;;;;;;14.11;62.24;101470.41;5035675;28;20025;-50
2022/04/26 06:34:22;;;;;;;22.02;8.93;;;;;;;13.85;63.41;101471.31;5035487;28;20021;-50
2022/04/26 06:36:48;;;;;;;19.48;9.05;;;;;;;13.87;63.50;101459.28;5035547;28;20079;-49
2022/04/26 06:39:14;;;;;;;15.90;9.05;;;;;;;13.95;63.38;101459.06;5035807;28;20026;-48
2022/04/26 06:41:41;;;;;;;22.00;9.18;;;;;;;13.88;63.65;101460.97;5035473;28;20017;-51
2022/04/26 06:44:08;;;;;;;19.45;9.60;;;;;;;13.81;63.94;101462.84;5035428;28;20405;-50
2022/04/26 06:46:37;;;;;;;25.80;10.43;;;;;;;13.94;63.78;101464.69;5035498;28;20029;-50
2022/04/26 06:49:06;;;;;;;19.80;9.38;;;;;;;13.91;63.59;101468.59;5035140;28;20017;-47
2022/04/26 06:51:40;;;;;;;21.80;8.73;;;;;;;13.89;63.32;101459.09;5035037;28;20033;-48
2022/04/26 06:54:12;;;;;;;17.45;8.93;;;;;;;13.83;63.79;101462.63;5035825;28;20056;-47
2022/04/26 06:56:45;;;;;;;20.92;8.57;;;;;;;13.88;63.67;101469.03;5034995;28;20030;-48
2022/04/26 06:59:13;;;;;;;19.30;10.00;;;;;;;13.83;64.47;101468.03;5034895;28;20554;-47
2022/04/26 07:01:40;;;;;;;19.65;9.65;;;;;;;13.90;64.01;101469.66;5035343;28;20060;-48
2022/04/26 07:04:07;;;;;;;25.05;9.65;;;;;;;13.94;63.88;101473.56;5035106;28;20108;-48
2022/04/26 07:06:34;;;;;;;30.98;10.35;;;;;;;13.93;63.58;101471.88;5034858;28;20034;-49
2022/04/26 07:09:01;;;;;;;24.80;10.57;;;;;;;13.77;64.74;101468.84;5034820;28;20025;-47
2022/04/26 07:11:28;;;;;;;22.80;10.20;;;;;;;13.71;65.26;101473.22;5034486;28;20037;-50
2022/04/26 07:13:57;;;;;;;24.10;9.38;;;;;;;13.72;65.02;101473.03;5034496;28;20057;-47
2022/04/26 07:16:23;;;;;;;19.70;9.57;;;;;;;13.63;65.73;101470.75;5034812;28;20079;-50
2022/04/26 07:18:50;;;;;;;25.92;11.13;;;;;;;13.59;66.00;101480.28;5034583;28;20385;-47
2022/04/26 07:21:17;;;;;;;18.30;9.60;;;;;;;13.73;65.58;101484.59;5034593;28;20047;-47
2022/04/26 07:23:43;;;;;;;23.10;9.95;;;;;;;13.64;65.57;101472.41;5034564;28;20033;-51
2022/04/26 07:26:09;;;;;;;24.75;10.70;;;;;;;13.64;66.51;101485.84;5034669;28;20032;-47
2022/04/26 07:28:35;;;;;;;24.25;10.43;;;;;;;13.62;65.88;101493.31;5034435;28;20044;-47
2022/04/26 07:31:02;;;;;;;23.75;10.88;;;;;;;13.56;66.35;101495.00;5034643;28;20029;-50
2022/04/26 07:36:13;;;;;;;18.83;9.77;;;;;;;13.53;66.38;101484.63;5034641;28;20616;-48
2022/04/26 07:38:39;;;;;;;21.83;10.55;;;;;;;13.58;66.49;101489.38;5034681;28;20065;-49
2022/04/26 07:41:07;;;;;;;19.85;9.25;;;;;;;13.55;66.49;101482.59;5033843;28;20083;-50
2022/04/26 07:43:34;;;;;;;21.33;9.15;;;;;;;13.44;66.70;101486.72;5033862;28;20041;-50
2022/04/26 07:46:00;;;;;;;22.20;9.70;;;;;;;13.61;66.07;101491.66;5034208;28;20108;-48
2022/04/26 07:48:27;;;;;;;22.60;9.77;;;;;;;13.56;65.47;101492.28;5033980;28;20083;-49
2022/04/26 07:50:53;;;;;;;23.70;10.23;;;;;;;13.40;66.17;101493.56;5034032;28;20393;-49
2022/04/26 07:53:19;;;;;;;24.15;10.00;;;;;;;13.44;65.61;101494.81;5034033;28;20025;-47
2022/04/26 07:55:47;;;;;;;23.48;10.57;;;;;;;13.47;65.08;101498.91;5034016;28;20091;-50
2022/04/26 07:58:13;;;;;;;29.13;9.75;;;;;;;13.33;65.81;101497.28;5033812;28;20197;-50
2022/04/26 08:00:39;;;;;;;16.90;9.48;;;;;;;13.40;65.12;101501.63;5033983;28;20091;-48
2022/04/26 08:03:06;;;;;;;22.95;9.23;;;;;;;13.47;64.34;101501.59;5033906;28;20036;-49
2022/04/26 08:05:33;;;;;;;19.55;9.85;;;;;;;13.54;64.76;101496.22;5033769;28;20386;-50
2022/04/26 08:07:59;;;;;;;28.17;10.18;;;;;;;13.57;64.80;101502.00;5033663;28;20401;-51
2022/04/26 08:10:25;;;;;;;27.20;9.90;;;;;;;13.61;65.04;101487.13;5033733;28;20051;-51
2022/04/26 08:12:51;;;;;;;21.58;9.43;;;;;;;13.57;65.29;101491.25;5033961;28;20029;-50
2022/04/26 08:15:19;;;;;;;28.02;9.73;;;;;;;13.51;65.24;101494.78;5033569;28;20032;-50
2022/04/26 08:17:48;;;;;;;22.15;9.95;;;;;;;13.38;65.52;101498.31;5033454;28;20037;-50
2022/04/26 08:20:14;;;;;;;26.92;10.27;;;;;;;13.54;65.14;101504.28;5033495;28;20212;-51
2022/04/26 08:22:40;;;;;;;21.02;9.02;;;;;;;13.49;65.16;101504.91;5033540;28;20390;-50
2022/04/26 08:27:51;;;;;;;20.75;9.10;;;;;;;13.40;65.81;101504.31;5033143;28;20052;-50
2022/04/26 08:30:18;;;;;;;19.42;9.20;;;;;;;13.17;66.23;101493.97;5033375;28;20033;-50
2022/04/26 08:32:46;;;;;;;21.08;9.20;;;;;;;13.34;66.00;101497.09;5033278;28;20540;-50
2022/04/26 08:35:17;;;;;;;23.90;9.68;;;;;;;13.48;65.14;101490.63;5033451;28;20436;-50
2022/04/26 08:37:43;;;;;;;22.77;8.90;;;;;;;13.47;63.84;101501.59;5033495;28;20036;-50
2022/04/26 08:40:11;;;;;;;28.65;8.95;;;;;;;13.57;63.24;101495.81;5033045;28;20029;-50
2022/04/26 08:42:38;;;;;;;18.83;8.43;;;;;;;13.61;61.73;101481.75;5033404;28;20025;-51
2022/04/26 08:45:07;;;;;;;17.52;8.43;;;;;;;13.68;61.82;101487.09;5034002;28;20075;-48
2022/04/26 08:53:04;;;;;;;13.48;7.75;;;;;;;13.63;60.23;101490.41;5033038;28;20131;-51
2022/04/26 08:55:32;;;;;;;17.45;8.00;;;;;;;13.81;57.86;101480.84;5033018;28;20464;-50
2022/04/26 08:58:01;;;;;;;15.57;7.80;;;;;;;13.66;57.44;101478.41;5033027;28;20376;-50
2022/04/26 09:00:27;;;;;;;17.85;7.75;;;;;;;13.72;57.38;101480.25;5033095;28;20021;-50
2022/04/26 09:03:07;;;;;;;15.43;7.70;;;;;;;13.65;56.53;101479.44;5032700;28;20531;-49
2022/04/26 09:05:35;;;;;;;16.75;8.07;;;;;;;13.77;55.91;101475.06;5032719;28;20024;-50
2022/04/26 09:08:20;;;;;;;15.75;7.82;;;;;;;13.65;56.03;101471.38;5033241;28;20065;-50
2022/04/26 09:10:50;;;;;;;19.10;7.18;;;;;;;13.70;56.05;101483.16;5032664;28;20092;-49
2022/04/26 09:13:20;;;;;;;14.88;7.47;;;;;;;13.73;55.77;101482.72;5032674;28;20394;-49
2022/04/26 09:15:54;;;;;;;19.15;7.25;;;;;;;13.61;56.38;101481.75;5032415;28;20033;-48
2022/04/26 09:18:30;;;;;;;17.02;7.60;;;;;;;13.56;57.47;101478.84;5032561;28;20083;-50
2022/04/26 09:20:58;;;;;;;19.85;8.30;;;;;;;13.65;59.50;101474.06;5032673;28;20037;-48
2022/04/26 09:23:27;;;;;;;15.50;7.43;;;;;;;13.47;59.71;101464.78;5032551;28;20125;-50
2022/04/26 09:26:07;;;;;;;16.77;9.70;;;;;;;13.50;60.61;101457.34;5032645;28;20029;-48
2022/04/26 09:28:37;;;;;;;15.13;8.07;;;;;;;13.60;60.38;101472.03;5032156;28;20494;-47
2022/04/26 09:31:25;;;;;;;16.38;8.45;;;;;;;13.46;59.42;101471.22;5032617;28;20037;-49
2022/04/26 09:33:53;;;;;;;13.02;7.68;;;;;;;13.59;58.55;101464.13;5032549;28;20482;-49
2022/04/26 09:36:22;;;;;;;17.15;7.75;;;;;;;13.56;57.55;101459.19;5032546;28;20024;-49
2022/04/26 09:38:55;;;;;;;21.58;8.43;;;;;;;13.43;57.61;101465.41;5032296;28;20080;-48
2022/04/26 09:41:22;;;;;;;18.27;7.60;;;;;;;13.48;57.28;101446.78;5032956;28;20048;-50
2022/04/26 09:43:58;;;;;;;16.10;7.55;;;;;;;13.34;58.72;101445.19;5032607;28;20024;-49
2022/04/26 09:46:24;;;;;;;;;;;;;;;13.12;58.85;101440.00;5032700;28;20381;-47
2022/04/26 09:48:53;;;;;;;17.60;7.35;;;;;;;13.23;58.75;101443.94;5032381;28;19913;-47
2022/04/26 09:51:19;;;;;;;13.18;7.22;;;;;;;13.30;58.22;101444.75;5032101;28;20315;-50
2022/04/26 09:53:46;;;;;;;18.58;7.65;;;;;;;13.38;58.12;101447.25;5032431;28;20033;-48
2022/04/26 09:56:14;;;;;;;17.85;7.70;;;;;;;13.31;59.03;101451.78;5032485;28;20033;-49
2022/04/26 09:58:41;;;;;;;17.27;8.20;;;;;;;13.46;59.86;101459.63;5032247;28;20029;-50
2022/04/26 10:01:08;;;;;;;19.42;8.38;;;;;;;13.62;60.75;101447.59;5032163;28;20025;-50
2022/04/26 10:03:41;;;;;;;20.95;8.77;;;;;;;13.53;61.53;101454.22;5032492;28;20040;-51
2022/04/26 10:06:08;;;;;;;19.77;9.63;;;;;;;13.59;61.72;101458.75;5035114;28;20481;-49
2022/04/26 10:08:35;;;;;;;17.83;9.18;;;;;;;13.40;62.44;101458.59;5036086;28;20052;-48
2022/04/26 10:11:05;;;;;;;27.65;9.95;;;;;;;13.51;62.58;101451.75;5035781;28;20136;-50
2022/04/26 10:13:43;;;;;;;25.00;10.30;;;;;;;13.62;62.44;101447.59;5035984;28;20127;-50
2022/04/26 10:16:11;;;;;;;17.00;9.70;;;;;;;13.24;63.25;101444.75;5035961;28;20088;-50
2022/04/26 10:18:48;;;;;;;20.83;10.40;;;;;;;13.39;62.62;101443.50;5036003;28;20052;-50
2022/04/26 10:21:39;;;;;;;23.00;9.13;;;;;;;13.42;62.12;101455.69;5035992;28;20021;-50
2022/04/26 10:24:06;;;;;;;21.73;8.60;;;;;;;13.44;61.08;101467.91;5025176;28;20076;-49
2022/04/26 10:26:34;;;;;;;15.60;8.00;;;;;;;13.24;61.59;101456.34;5035864;28;20442;-50
2022/04/26 10:29:01;;;;;;;19.70;9.00;;;;;;;13.22;61.74;101458.44;5035473;28;20045;-50
2022/04/26 10:31:37;;;;;;;16.45;8.40;;;;;;;12.95;62.35;101458.41;5035389;28;20067;-50
2022/04/26 10:34:23;;;;;;;19.88;8.85;;;;;;;12.71;62.60;101458.97;5035481;28;20029;-49
2022/04/26 10:36:54;;;;;;;17.02;7.60;;;;;;;13.01;61.25;101455.91;5035316;28;20101;-50
2022/04/26 10:39:22;;;;;;;17.42;7.90;;;;;;;12.97;61.29;101462.72;5035812;28;20037;-51
2022/04/26 10:41:49;;;;;;;15.48;8.25;;;;;;;12.91;61.55;101459.84;5035557;28;20028;-48
2022/04/26 10:44:24;;;;;;;23.02;9.63;;;;;;;12.92;62.17;101460.66;5035154;28;20018;-50
2022/04/26 10:46:55;;;;;;;21.33;9.77;;;;;;;12.92;63.59;101458.78;5035148;28;20032;-49
2022/04/26 10:49:24;;;;;;;19.13;8.85;;;;;;;12.91;63.70;101461.69;5035610;28;20470;-46
2022/04/26 10:51:56;;;;;;;20.27;8.38;;;;;;;12.86;63.55;101448.88;5035118;28;20489;-50
2022/04/26 10:57:22;;;;;;;16.48;8.05;;;;;;;13.02;62.13;101468.31;5034938;28;20029;-50
2022/04/26 10:59:54;;;;;;;18.20;8.67;;;;;;;12.94;61.46;101470.19;5034984;28;20411;-47
2022/04/26 11:02:22;;;;;;;17.67;7.70;;;;;;;13.00;61.12;101465.84;5035529;28;20025;-50
2022/04/26 11:04:57;;;;;;;16.85;7.70;;;;;;;13.06;61.12;101472.25;5034753;28;20026;-47
2022/04/26 11:07:26;;;;;;;12.63;6.90;;;;;;;13.06;61.01;101464.19;5034818;28;20021;-49
2022/04/26 11:09:54;;;;;;;14.38;7.43;;;;;;;13.11;61.00;101473.28;5034825;28;20083;-50
2022/04/26 11:12:26;;;;;;;18.63;7.55;;;;;;;13.04;61.41;101469.75;5034977;28;20500;-49
2022/04/26 11:14:54;;;;;;;19.30;6.82;;;;;;;13.11;61.55;101469.78;5034725;28;20037;-50
2022/04/26 11:17:22;;;;;;;16.80;7.57;;;;;;;13.16;61.53;101469.97;5034601;28;20029;-47
2022/04/26 11:19:50;;;;;;;18.08;7.75;;;;;;;13.14;61.67;101467.47;5034383;28;20030;-49
2022/04/26 11:22:18;;;;;;;14.00;6.75;;;;;;;13.22;61.27;101466.50;5034531;28;20025;-50
2022/04/26 11:30:30;;;;;;;16.02;7.50;;;;;;;13.35;59.15;101471.84;5034841;28;20390;-50
2022/04/26 11:32:59;;;;;;;15.48;7.07;;;;;;;13.40;58.37;101469.34;5034714;28;20378;-47
2022/04/26 11:35:26;;;;;;;12.27;6.57;;;;;;;13.25;58.60;101467.91;5034431;28;20086;-47
2022/04/26 11:37:54;;;;;;;16.33;7.38;;;;;;;13.28;58.46;101468.34;5034336;28;20029;-47
2022/04/26 11:40:22;;;;;;;19.33;7.75;;;;;;;13.24;58.34;101477.03;5034250;28;20021;-50
2022/04/26 11:42:49;;;;;;;14.68;7.35;;;;;;;13.12;59.03;101480.31;5034270;28;20128;-48
2022/04/26 11:45:15;;;;;;;16.63;8.27;;;;;;;13.06;59.33;101481.13;5034286;28;20029;-47
2022/04/26 11:47:49;;;;;;;17.77;7.72;;;;;;;13.17;58.82;101480.53;5034212;28;20025;-48
2022/04/26 11:50:17;;;;;;;16.65;7.22;;;;;;;13.13;58.44;101481.13;5033869;28;20512;-48
2022/04/26 11:52:45;;;;;;;16.77;8.07;;;;;;;13.20;58.81;101477.41;5034044;28;20033;-50
2022/04/26 11:55:29;;;;;;;13.43;6.70;;;;;;;13.32;58.64;101474.94;5033784;28;20544;-49
2022/04/26 11:58:14;;;;;;;16.15;7.57;;;;;;;12.98;59.19;101473.25;5034174;28;20044;-48
2022/04/26 12:00:55;;;;;;;17.85;7.63;;;;;;;12.92;59.28;101464.16;5033945;28;20056;-48
2022/04/26 12:03:24;;;;;;;15.70;7.28;;;;;;;13.04;58.79;101468.94;5033796;28;20022;-46
2022/04/26 12:05:54;;;;;;;16.98;7.03;;;;;;;13.09;58.69;101474.50;5034316;28;20033;-49
2022/04/26 12:08:22;;;;;;;19.25;7.93;;;;;;;12.98;59.00;101477.81;5033700;28;20030;-48
2022/04/26 12:10:48;;;;;;;20.52;8.30;;;;;;;13.07;58.76;101484.66;5033607;28;20021;-47
2022/04/26 12:13:28;;;;;;;13.10;7.15;;;;;;;13.10;58.42;101481.53;5033546;28;20366;-48
2022/04/26 12:15:55;;;;;;;18.45;8.90;;;;;;;12.93;58.87;101481.13;5033772;28;20481;-50
2022/04/26 12:18:21;;;;;;;17.60;7.05;;;;;;;12.89;58.78;101480.72;5033502;28;20109;-50
2022/04/26 12:21:03;;;;;;;22.70;7.88;;;;;;;12.85;59.07;101482.16;5033384;28;20026;-47
2022/04/26 12:23:30;;;;;;;17.73;7.82;;;;;;;12.56;60.15;101477.16;5033301;28;20065;-47
2022/04/26 12:25:56;;;;;;;20.17;9.05;;;;;;;12.72;59.41;101484.00;5033376;28;20559;-50
2022/04/26 12:28:23;;;;;;;21.83;8.38;;;;;;;12.62;60.08;101476.34;5032541;28;20056;-51
2022/04/26 12:30:49;;;;;;;19.75;8.75;;;;;;;12.61;59.89;101486.25;5033259;28;20057;-51
2022/04/26 12:33:34;;;;;;;15.85;8.20;;;;;;;12.64;59.66;101483.16;5033257;28;20032;-48
2022/04/26 12:36:05;;;;;;;16.40;7.78;;;;;;;12.57;59.74;101487.69;5033233;28;20442;-47
2022/04/26 12:38:45;;;;;;;19.63;8.00;;;;;;;12.48;60.42;101482.69;5033084;28;20099;-47
2022/04/26 12:41:12;;;;;;;20.60;8.30;;;;;;;12.42;60.50;101477.09;5033272;28;20018;-48
2022/04/26 12:43:38;;;;;;;18.40;8.23;;;;;;;12.54;60.19;101481.88;5033208;28;20036;-48
2022/04/26 12:46:07;;;;;;;20.25;8.57;;;;;;;12.34;60.73;101477.31;5033122;28;20413;-47
2022/04/26 12:51:27;;;;;;;19.80;7.53;;;;;;;12.34;60.71;101482.69;5033115;28;20450;-47
2022/04/26 12:54:05;;;;;;;20.25;7.85;;;;;;;12.51;60.26;101485.00;5033194;28;20029;-47
2022/04/26 12:56:31;;;;;;;15.63;7.65;;;;;;;12.43;60.01;101480.63;5032878;28;20139;-48
2022/04/26 12:58:58;;;;;;;21.98;7.97;;;;;;;12.32;60.82;101487.41;5032853;28;20037;-48
2022/04/26 13:01:24;;;;;;;18.35;7.95;;;;;;;12.32;60.67;101478.53;5032849;28;20141;-47
2022/04/26 13:03:51;;;;;;;16.80;7.93;;;;;;;12.23;61.09;101482.44;5032670;28;20332;-48
2022/04/26 13:06:18;;;;;;;17.38;8.55;;;;;;;12.20;62.07;101477.44;5032926;28;20427;-47
2022/04/26 13:08:49;;;;;;;19.33;8.80;;;;;;;11.96;62.80;101484.19;5032823;28;20041;-49
2022/04/26 13:11:18;;;;;;;23.98;8.38;;;;;;;11.85;63.15;101481.03;5033078;28;20034;-49
2022/04/26 13:13:50;;;;;;;20.95;8.18;;;;;;;11.68;64.15;101476.16;5032886;28;20486;-51
2022/04/26 13:16:17;;;;;;;19.77;8.18;;;;;;;11.73;64.25;101485.25;5032999;28;20033;-49
2022/04/26 13:18:43;;;;;;;23.70;8.18;;;;;;;11.77;64.12;101481.19;5033048;28;20033;-49
2022/04/26 13:21:10;;;;;;;25.60;9.13;;;;;;;11.77;63.83;101480.31;5032509;28;20074;-51
2022/04/26 13:23:38;;;;;;;19.08;8.50;;;;;;;11.63;64.48;101482.94;5032517;28;20095;-50
2022/04/26 13:26:06;;;;;;;21.15;9.02;;;;;;;11.63;64.57;101487.47;5033149;28;20485;-49
2022/04/26 13:28:34;;;;;;;24.35;8.32;;;;;;;11.53;65.04;101487.81;5032654;28;20048;-51
2022/04/26 13:31:01;;;;;;;27.38;8.75;;;;;;;11.58;64.72;101477.34;5032572;28;20474;-51
2022/04/26 13:33:27;;;;;;;21.00;9.13;;;;;;;11.61;64.71;101484.16;5032537;28;20034;-52
2022/04/26 13:35:55;;;;;;;24.38;8.80;;;;;;;11.44;65.30;101480.13;5032570;28;20018;-53
2022/04/26 13:38:21;;;;;;;30.00;9.23;;;;;;;11.58;64.88;101477.34;5032526;28;20378;-52
2022/04/26 13:40:48;;;;;;;25.55;8.43;;;;;;;11.60;64.43;101474.44;5035063;28;20053;-46
2022/04/26 13:43:16;;;;;;;18.55;7.93;;;;;;;11.56;64.83;101476.72;5036574;28;20038;-50
2022/04/26 13:45:42;;;;;;;21.90;8.82;;;;;;;11.63;64.79;101484.78;5037125;28;20026;-47
2022/04/26 13:48:11;;;;;;;26.10;8.00;;;;;;;11.66;64.46;101488.91;5036252;28;20469;-49
2022/04/26 13:50:38;;;;;;;22.83;8.05;;;;;;;11.74;64.09;101486.91;5036733;28;20123;-47
2022/04/26 13:53:05;;;;;;;20.65;8.00;;;;;;;11.83;63.52;101487.63;5036195;28;20402;-49
2022/04/26 13:55:31;;;;;;;18.63;7.57;;;;;;;11.91;63.69;101481.25;5036135;28;20108;-47
2022/04/26 13:57:57;;;;;;;19.05;8.27;;;;;;;11.88;63.32;101486.00;5036271;28;20029;-47
2022/04/26 14:00:23;;;;;;;16.50;7.10;;;;;;;11.83;63.75;101491.13;5036182;28;20022;-50
2022/04/26 14:02:50;;;;;;;16.92;7.80;;;;;;;11.78;63.56;101482.81;5036222;28;20385;-47
2022/04/26 14:05:17;;;;;;;27.20;8.02;;;;;;;11.79;63.88;101483.66;5036156;28;20033;-47
2022/04/26 14:07:47;;;;;;;19.63;7.57;;;;;;;11.84;63.72;101489.28;5036023;28;20053;-50
2022/04/26 14:10:15;;;;;;;21.17;8.07;;;;;;;11.78;64.16;101485.50;5035932;28;20036;-48
2022/04/26 14:12:42;;;;;;;19.45;7.35;;;;;;;11.77;64.03;101480.31;5036012;28;20045;-48
2022/04/26 14:23:27;;;;;;;18.83;7.88;;;;;;;11.77;63.31;101475.81;5036057;28;20624;-48
2022/04/26 14:25:54;;;;;;;18.02;6.85;;;;;;;11.69;63.32;101484.00;5035732;28;20032;-50
2022/04/26 14:28:20;;;;;;;18.70;7.18;;;;;;;11.83;62.52;101484.94;5035388;28;20045;-47
2022/04/26 14:30:46;;;;;;;20.10;7.70;;;;;;;11.81;63.04;101481.59;5035583;28;20590;-49
2022/04/26 14:33:13;;;;;;;18.58;6.50;;;;;;;11.91;62.69;101486.63;5035418;28;20417;-47
2022/04/26 14:35:39;;;;;;;20.55;7.38;;;;;;;12.04;62.19;101490.19;5035773;28;20462;-48
2022/04/26 14:38:06;;;;;;;14.50;6.38;;;;;;;12.17;61.40;101485.94;5035399;28;20025;-51
2022/04/26 14:40:33;;;;;;;20.63;6.75;;;;;;;12.21;61.99;101487.16;5035363;28;20047;-49
2022/04/26 14:42:59;;;;;;;18.48;6.97;;;;;;;12.30;60.82;101494.84;5035369;28;20029;-51
2022/04/26 14:45:25;;;;;;;18.02;6.90;;;;;;;12.27;61.11;101497.94;5035514;28;20053;-51
2022/04/26 14:47:51;;;;;;;18.52;7.07;;;;;;;12.40;60.56;101497.97;5035476;28;20432;-49
2022/04/26 14:50:18;;;;;;;14.30;7.05;;;;;;;12.50;60.89;101497.59;5034821;28;20025;-48
2022/04/26 14:52:44;;;;;;;14.18;6.47;;;;;;;12.39;61.22;101501.69;5035086;28;20045;-48
2022/04/26 14:55:11;;;;;;;20.60;6.95;;;;;;;12.54;60.30;101501.50;5035130;28;20024;-48
2022/04/26 14:57:37;;;;;;;18.25;6.75;;;;;;;12.49;61.11;101505.84;5035119;28;20033;-48
2022/04/26 15:00:08;;;;;;;20.13;6.13;;;;;;;12.65;60.10;101495.53;5035431;28;20431;-48
2022/04/26 15:02:41;;;;;;;19.17;7.10;;;;;;;12.79;59.11;101509.00;5035642;28;20021;-48
2022/04/26 15:05:08;;;;;;;18.33;7.00;;;;;;;12.72;59.31;101500.94;5035208;28;20033;-48
2022/04/26 15:10:23;;;;;;;17.83;6.68;;;;;;;12.87;59.15;101503.44;5014157;28;20041;-49
2022/04/26 15:18:21;;;;;;;17.90;5.88;;;;;;;13.07;58.31;101498.91;5034865;28;20080;-49
2022/04/26 15:20:53;;;;;;;15.20;6.20;;;;;;;13.17;58.54;101503.88;5034735;28;20377;-48
2022/04/26 15:23:21;;;;;;;13.77;6.20;;;;;;;13.22;58.51;101504.13;5035138;28;20108;-48
2022/04/26 15:25:55;;;;;;;16.75;6.00;;;;;;;13.39;57.67;101508.03;5034508;28;20116;-49
2022/04/26 15:28:23;;;;;;;18.63;5.40;;;;;;;13.46;56.79;101511.53;5034706;28;20046;-49
2022/04/26 15:30:50;;;;;;;16.50;5.57;;;;;;;13.59;56.35;101508.00;5034830;28;20124;-48
2022/04/26 15:33:21;;;;;;;17.98;5.50;;;;;;;13.66;55.92;101516.09;5034612;28;20394;-51
2022/04/26 15:35:47;;;;;;;13.05;5.35;;;;;;;13.72;56.05;101512.56;5034236;28;20017;-49
2022/04/26 15:38:13;;;;;;;20.88;6.00;;;;;;;13.89;55.97;101519.13;5034248;28;20033;-48
2022/04/26 15:40:44;;;;;;;18.02;5.15;;;;;;;13.95;55.24;101515.59;5034265;28;20034;-50